Time;durP1;ratioP1;P1;durP2;ratioP2;P2;SDS_P1;SDS_P2;PMS_P1;PMS_P2;Temp;Humidity;BMP_temperature;BMP_pressure;BME280_temperature;BME280_humidity;BME280_pressure;Samples;Min_cycle;Max_cycle;Signal;HPM_P1;HPM_P2
2022/04/29 00:00:53;;;;;;;10.27;5.13;;;;;;;11.29;60.20;102895.91;5227979;28;20101;-78
2022/04/29 00:03:25;;;;;;;12.67;5.60;;;;;;;11.17;60.51;102891.91;5227306;28;20021;-78
2022/04/29 00:05:56;;;;;;;14.23;5.50;;;;;;;11.22;60.67;102896.06;5228982;28;20029;-78
2022/04/29 00:08:27;;;;;;;13.50;5.30;;;;;;;11.09;60.83;102899.97;5228065;28;20038;-79
2022/04/29 00:10:59;;;;;;;14.27;5.83;;;;;;;11.10;60.83;102885.97;5227953;28;20115;-78
2022/04/29 00:13:30;;;;;;;11.90;5.60;;;;;;;10.95;61.27;102889.88;5227451;28;20025;-77
2022/04/29 00:16:01;;;;;;;17.23;6.27;;;;;;;11.15;60.73;102883.22;5225816;28;20108;-76
2022/04/29 00:18:32;;;;;;;16.70;5.73;;;;;;;10.80;61.54;102876.31;5226461;28;20053;-77
2022/04/29 00:21:04;;;;;;;16.87;6.40;;;;;;;11.01;61.66;102881.84;5229839;28;20002;-77
2022/04/29 00:23:36;;;;;;;13.67;5.83;;;;;;;10.78;62.10;102880.75;5227243;28;20030;-78
2022/04/29 00:26:07;;;;;;;13.30;6.07;;;;;;;10.84;61.92;102884.97;5226922;28;20056;-77
2022/04/29 00:28:38;;;;;;;10.50;6.07;;;;;;;10.93;61.26;102889.94;5227663;28;20033;-77
2022/04/29 00:31:09;;;;;;;17.10;5.80;;;;;;;10.74;62.22;102873.84;5226023;28;20114;-76
2022/04/29 00:33:41;;;;;;;12.57;6.13;;;;;;;10.72;62.45;102881.75;5226809;28;20227;-77
2022/04/29 00:36:12;;;;;;;14.80;5.53;;;;;;;10.68;62.18;102887.16;5227124;28;20034;-77
2022/04/29 00:38:43;;;;;;;15.43;6.30;;;;;;;10.72;62.61;102880.91;5226188;28;20060;-76
2022/04/29 00:41:19;;;;;;;11.73;5.37;;;;;;;10.64;62.89;102887.22;5226286;28;20028;-76
2022/04/29 00:44:04;;;;;;;12.47;5.63;;;;;;;10.78;62.02;102880.75;5226537;28;20570;-77
2022/04/29 00:46:40;;;;;;;16.77;6.50;;;;;;;10.72;62.45;102878.28;5214796;28;20025;-76
2022/04/29 00:49:13;;;;;;;17.50;6.37;;;;;;;10.54;63.03;102872.66;5225218;28;20301;-77
2022/04/29 00:51:51;;;;;;;14.43;6.15;;;;;;;10.64;63.05;102863.66;5225932;28;20526;-77
2022/04/29 00:54:30;;;;;;;15.60;6.37;;;;;;;10.43;63.74;102869.41;5226580;28;20030;-78
2022/04/29 00:57:04;;;;;;;14.67;6.27;;;;;;;10.35;63.72;102867.84;5225626;28;20025;-77
2022/04/29 01:00:10;;;;;;;9.23;6.70;;;;;;;10.58;62.77;102862.94;5231702;28;20018;-77
2022/04/29 01:02:45;;;;;;;14.33;6.57;;;;;;;10.38;63.74;102865.19;5241795;28;20037;-77
2022/04/29 01:05:21;;;;;;;12.90;6.07;;;;;;;10.17;64.62;102867.44;5227014;28;20457;-77
2022/04/29 01:07:53;;;;;;;8.80;5.77;;;;;;;10.28;64.19;102866.31;5223201;28;20102;-78
2022/04/29 01:10:24;;;;;;;10.50;5.97;;;;;;;10.19;64.40;102856.09;5229396;28;20593;-76
2022/04/29 01:12:59;;;;;;;12.77;7.20;;;;;;;10.07;65.00;102857.25;5227052;28;20023;-78
2022/04/29 01:15:33;;;;;;;14.07;6.10;;;;;;;10.09;64.63;102858.91;5227092;28;20495;-78
2022/04/29 01:18:08;;;;;;;14.35;6.03;;;;;;;9.99;65.75;102860.06;5241293;28;20025;-78
2022/04/29 01:20:41;;;;;;;9.57;5.60;;;;;;;10.17;64.71;102854.34;5227230;28;20032;-78
2022/04/29 01:23:13;;;;;;;17.83;6.90;;;;;;;9.99;65.27;102853.06;5224769;28;20084;-76
2022/04/29 01:25:44;;;;;;;12.90;6.43;;;;;;;9.98;65.20;102840.88;5227001;28;20060;-77
2022/04/29 01:28:15;;;;;;;13.40;6.13;;;;;;;10.03;64.88;102848.63;5225902;28;20057;-77
2022/04/29 01:30:49;;;;;;;14.63;7.53;;;;;;;10.09;64.68;102835.34;5226045;28;20030;-78
2022/04/29 01:33:21;;;;;;;13.70;6.47;;;;;;;9.99;64.82;102836.50;5226903;28;20400;-77
2022/04/29 01:35:52;;;;;;;12.33;6.73;;;;;;;9.96;64.64;102818.25;5225417;28;20071;-77
2022/04/29 01:38:23;;;;;;;12.13;5.90;;;;;;;9.80;65.13;102829.97;5226063;28;20025;-76
2022/04/29 01:40:55;;;;;;;16.53;7.07;;;;;;;9.83;64.97;102834.25;5226038;28;20052;-78
2022/04/29 01:43:26;;;;;;;13.83;6.77;;;;;;;9.76;65.40;102827.44;5226925;28;20040;-77
2022/04/29 01:45:57;;;;;;;14.40;5.90;;;;;;;9.74;64.96;102803.94;5226408;28;20043;-77
2022/04/29 01:48:29;;;;;;;12.53;6.97;;;;;;;9.66;65.76;102819.84;5226266;28;20025;-77
2022/04/29 01:51:05;;;;;;;16.77;6.87;;;;;;;9.57;65.98;102822.66;5225700;28;20032;-77
2022/04/29 01:53:36;;;;;;;13.60;6.03;;;;;;;9.61;65.51;102823.47;5227930;28;20026;-77
2022/04/29 01:56:08;;;;;;;14.67;7.23;;;;;;;9.66;65.46;102821.59;5230791;28;20037;-77
2022/04/29 01:58:39;;;;;;;16.60;7.17;;;;;;;9.66;64.95;102814.63;5229945;28;20872;-78
2022/04/29 02:01:10;;;;;;;11.17;6.37;;;;;;;9.47;65.75;102815.94;5228904;28;20022;-77
2022/04/29 02:03:41;;;;;;;16.90;7.10;;;;;;;9.44;65.94;102822.94;5245223;28;20033;-77
2022/04/29 02:06:13;;;;;;;12.60;6.30;;;;;;;9.49;66.17;102830.72;5228468;28;20508;-76
2022/04/29 02:08:44;;;;;;;12.87;6.60;;;;;;;9.27;66.56;102818.09;5245934;28;20061;-74
2022/04/29 02:11:19;;;;;;;12.50;6.40;;;;;;;9.26;66.57;102820.75;5229269;28;20045;-77
2022/04/29 02:13:52;;;;;;;14.40;6.53;;;;;;;9.27;67.12;102822.47;5230068;28;20029;-77
2022/04/29 02:16:23;;;;;;;14.80;6.60;;;;;;;9.26;66.75;102823.38;5229442;28;20040;-70
2022/04/29 02:18:55;;;;;;;15.43;6.67;;;;;;;9.16;67.20;102813.13;5227905;28;20026;-77
2022/04/29 02:21:26;;;;;;;13.03;6.63;;;;;;;9.19;67.32;102818.28;5224990;28;20037;-77
2022/04/29 02:23:57;;;;;;;9.73;5.80;;;;;;;9.23;66.66;102818.22;5229397;28;20022;-78
2022/04/29 02:26:28;;;;;;;17.60;7.40;;;;;;;9.15;67.08;102821.00;5228737;28;20026;-79
2022/04/29 02:29:00;;;;;;;14.47;6.50;;;;;;;9.21;66.96;102818.25;5227463;28;20115;-78
2022/04/29 02:31:31;;;;;;;14.00;5.97;;;;;;;9.30;66.70;102817.19;5230295;28;20037;-77
2022/04/29 02:34:03;;;;;;;14.10;6.57;;;;;;;9.17;66.74;102808.75;5228580;28;20082;-77
2022/04/29 02:36:34;;;;;;;10.63;6.63;;;;;;;9.25;66.98;102813.81;5228850;28;20030;-78
2022/04/29 02:39:06;;;;;;;13.93;6.67;;;;;;;9.14;67.75;102816.66;5228910;28;20090;-76
2022/04/29 02:41:37;;;;;;;12.57;7.37;;;;;;;9.24;66.72;102814.69;5229448;28;20030;-77
2022/04/29 02:44:08;;;;;;;19.23;8.07;;;;;;;9.16;67.23;102812.28;5229497;28;20030;-77
2022/04/29 02:47:06;;;;;;;14.63;8.60;;;;;;;9.08;67.55;102810.69;5228913;28;20029;-77
2022/04/29 02:49:31;;;;;;;11.10;6.90;;;;;;;8.92;68.00;102810.16;5228850;28;20045;-78
2022/04/29 02:52:02;;;;;;;12.87;7.27;;;;;;;8.98;68.28;102809.16;5226669;28;20017;-78
2022/04/29 02:54:34;;;;;;;24.10;8.53;;;;;;;8.89;68.09;102818.06;5228075;28;20017;-77
2022/04/29 02:57:06;;;;;;;10.73;6.70;;;;;;;9.00;67.84;102809.13;5227086;28;20044;-77
2022/04/29 02:59:37;;;;;;;14.80;7.40;;;;;;;8.97;68.15;102811.81;5229358;28;20091;-77
2022/04/29 03:02:08;;;;;;;13.23;7.27;;;;;;;8.86;68.68;102815.50;5228748;28;20053;-77
2022/04/29 03:04:40;;;;;;;16.23;8.20;;;;;;;8.87;68.08;102801.53;5228511;28;20100;-77
2022/04/29 03:07:11;;;;;;;12.80;6.83;;;;;;;8.98;68.07;102808.28;5227632;28;20048;-77
2022/04/29 03:09:42;;;;;;;14.53;7.37;;;;;;;9.04;67.71;102792.50;5229312;28;20533;-77
2022/04/29 03:12:14;;;;;;;13.57;7.67;;;;;;;8.93;68.38;102790.09;5227491;28;20112;-76
2022/04/29 03:14:45;;;;;;;12.30;7.43;;;;;;;8.88;68.79;102785.00;5227261;28;20029;-77
2022/04/29 03:20:07;;;;;;;14.53;7.90;;;;;;;8.74;68.90;102779.19;5232481;28;20483;-78
2022/04/29 03:22:38;;;;;;;13.17;7.63;;;;;;;8.81;68.47;102763.31;5226861;28;20120;-77
2022/04/29 03:25:10;;;;;;;15.30;7.93;;;;;;;8.60;69.68;102767.28;5228338;28;20025;-77
2022/04/29 03:27:41;;;;;;;16.80;8.50;;;;;;;8.54;69.98;102783.88;5227273;28;20057;-77
2022/04/29 03:30:13;;;;;;;18.70;8.57;;;;;;;8.70;69.20;102781.88;5226466;28;20525;-78
2022/04/29 03:32:54;;;;;;;13.00;7.67;;;;;;;8.78;68.87;102786.06;5229693;28;20025;-78
2022/04/29 03:35:26;;;;;;;10.33;8.03;;;;;;;8.71;69.01;102788.81;5228217;28;20079;-77
2022/04/29 03:37:57;;;;;;;11.43;8.60;;;;;;;8.62;69.74;102803.81;5226110;28;20512;-77
2022/04/29 03:40:29;;;;;;;18.93;8.90;;;;;;;8.52;69.84;102800.50;5228203;28;20033;-77
2022/04/29 03:43:00;;;;;;;20.07;9.70;;;;;;;8.73;69.28;102809.66;5226682;28;20638;-77
2022/04/29 03:45:32;;;;;;;12.67;8.70;;;;;;;8.52;70.24;102810.94;5228446;28;20557;-78
2022/04/29 03:48:04;;;;;;;13.13;8.27;;;;;;;8.54;69.85;102791.72;5227560;28;20027;-78
2022/04/29 03:50:35;;;;;;;14.17;8.37;;;;;;;8.59;70.13;102792.53;5227065;28;20021;-79
2022/04/29 03:53:07;;;;;;;13.30;8.20;;;;;;;8.51;70.09;102783.09;5225398;28;20064;-79
2022/04/29 03:55:38;;;;;;;17.00;9.43;;;;;;;8.57;70.08;102794.31;5226739;28;20040;-78
2022/04/29 03:58:09;;;;;;;11.83;8.40;;;;;;;8.52;70.36;102800.50;5227549;28;20100;-78
2022/04/29 04:00:41;;;;;;;12.97;9.93;;;;;;;8.41;70.83;102796.31;5228195;28;20025;-78
2022/04/29 04:03:12;;;;;;;15.37;9.47;;;;;;;8.52;70.18;102796.13;5227852;28;20462;-78
2022/04/29 04:06:49;;;;;;;15.93;9.53;;;;;;;8.54;70.38;102801.31;5209561;28;20416;-77
2022/04/29 04:08:35;;;;;;;15.63;9.60;;;;;;;8.37;70.69;102786.84;5213499;28;20053;-78
2022/04/29 04:11:07;;;;;;;14.63;9.67;;;;;;;8.39;70.88;102785.06;5227986;28;20384;-78
2022/04/29 04:13:38;;;;;;;17.70;10.23;;;;;;;8.43;70.68;102797.16;5226968;28;20037;-79
2022/04/29 04:16:09;;;;;;;15.03;8.70;;;;;;;8.37;70.82;102792.06;5226830;28;20033;-78
2022/04/29 04:18:40;;;;;;;16.90;11.20;;;;;;;8.34;70.96;102792.97;5227457;28;20037;-78
2022/04/29 04:21:12;;;;;;;17.47;9.80;;;;;;;8.27;71.46;102790.50;5226301;28;20447;-78
2022/04/29 04:23:43;;;;;;;17.60;10.37;;;;;;;8.43;70.67;102781.47;5227673;28;20034;-78
2022/04/29 04:26:14;;;;;;;21.20;10.17;;;;;;;8.52;70.44;102782.22;5226883;28;20112;-76
2022/04/29 04:28:46;;;;;;;14.10;9.53;;;;;;;8.41;71.03;102778.03;5227293;28;20035;-77
2022/04/29 04:31:21;;;;;;;14.33;9.63;;;;;;;8.27;71.01;102774.84;5227519;28;20068;-77
2022/04/29 04:33:52;;;;;;;17.57;9.50;;;;;;;8.16;71.87;102783.75;5227406;28;20037;-77
2022/04/29 04:36:24;;;;;;;18.30;11.33;;;;;;;8.13;72.02;102781.19;5224540;28;20033;-76
2022/04/29 04:38:55;;;;;;;20.97;10.00;;;;;;;8.23;71.72;102785.34;5241767;28;20045;-76
2022/04/29 04:41:26;;;;;;;20.80;10.33;;;;;;;8.13;72.02;102775.09;5227627;28;20083;-76
2022/04/29 04:43:58;;;;;;;12.93;9.10;;;;;;;8.31;71.38;102777.34;5226227;28;20287;-77
2022/04/29 04:46:29;;;;;;;13.77;9.57;;;;;;;8.12;72.48;102779.44;5226470;28;20484;-77
2022/04/29 04:49:00;;;;;;;17.30;9.57;;;;;;;8.19;72.17;102774.97;5226371;28;20033;-77
2022/04/29 04:51:31;;;;;;;18.33;11.10;;;;;;;8.17;72.09;102772.41;5226183;28;20064;-77
2022/04/29 04:54:03;;;;;;;17.70;9.83;;;;;;;8.14;72.13;102774.19;5227195;28;20037;-77
2022/04/29 04:56:35;;;;;;;19.13;11.47;;;;;;;8.19;72.06;102777.59;5226571;28;20033;-77
2022/04/29 04:59:06;;;;;;;16.50;11.13;;;;;;;8.12;72.34;102771.63;5227508;28;20079;-77
2022/04/29 05:01:37;;;;;;;20.00;10.60;;;;;;;8.13;72.39;102773.38;5224977;28;20095;-77
2022/04/29 05:04:10;;;;;;;16.03;10.90;;;;;;;8.17;72.14;102769.78;5226788;28;20021;-77
2022/04/29 05:06:41;;;;;;;17.67;11.30;;;;;;;8.14;72.31;102776.81;5224158;28;20037;-77
2022/04/29 05:09:12;;;;;;;18.07;11.07;;;;;;;8.12;72.44;102771.63;5226990;28;20068;-79
2022/04/29 05:11:44;;;;;;;19.20;11.30;;;;;;;8.09;72.28;102771.69;5226914;28;20067;-75
2022/04/29 05:14:15;;;;;;;16.13;10.73;;;;;;;8.01;73.18;102776.19;5224899;28;20013;-78
2022/04/29 05:16:46;;;;;;;16.20;10.80;;;;;;;8.14;72.67;102774.19;5225440;28;20120;-79
2022/04/29 05:19:18;;;;;;;18.80;11.10;;;;;;;8.16;72.68;102768.06;5226326;28;20654;-77
2022/04/29 05:21:51;;;;;;;18.97;10.70;;;;;;;8.02;73.09;102775.28;5224016;28;20476;-77
2022/04/29 05:24:22;;;;;;;18.93;12.20;;;;;;;8.04;72.55;102787.44;5226474;28;20032;-77
2022/04/29 05:26:53;;;;;;;17.10;11.73;;;;;;;8.02;73.03;102772.69;5225990;28;20034;-74
2022/04/29 05:29:25;;;;;;;26.83;12.40;;;;;;;8.06;72.30;102766.53;5226755;28;20029;-77
2022/04/29 05:31:56;;;;;;;19.43;11.50;;;;;;;8.14;72.59;102785.50;5225707;28;20038;-76
2022/04/29 05:34:28;;;;;;;17.20;11.70;;;;;;;8.08;73.23;102783.03;5226501;28;20538;-77
2022/04/29 05:37:00;;;;;;;16.93;11.60;;;;;;;8.11;73.25;102775.13;5224893;28;20492;-77
2022/04/29 05:42:23;;;;;;;19.70;12.53;;;;;;;8.09;73.14;102782.13;5226120;28;20034;-78
2022/04/29 05:44:54;;;;;;;17.20;11.90;;;;;;;8.16;72.75;102785.47;5226014;28;20053;-78
2022/04/29 05:47:25;;;;;;;18.00;12.57;;;;;;;8.15;73.20;102787.22;5225876;28;20492;-76
2022/04/29 05:49:57;;;;;;;16.27;11.47;;;;;;;8.13;72.74;102783.81;5226014;28;20025;-78
2022/04/29 05:52:28;;;;;;;23.20;12.27;;;;;;;8.30;72.28;102793.06;5225535;28;20037;-79
2022/04/29 05:55:00;;;;;;;16.70;12.73;;;;;;;8.20;73.55;102790.59;5224600;28;20052;-78
2022/04/29 05:57:31;;;;;;;17.03;12.57;;;;;;;8.27;72.32;102785.28;5226479;28;20036;-78
2022/04/29 06:00:03;;;;;;;17.83;12.73;;;;;;;8.09;73.01;102803.88;5224463;28;20456;-78
2022/04/29 06:02:40;;;;;;;19.13;13.20;;;;;;;8.26;72.55;102792.25;5226468;28;20013;-78
2022/04/29 06:05:11;;;;;;;20.53;13.43;;;;;;;8.27;72.73;102796.59;5226999;28;20061;-78
2022/04/29 06:07:43;;;;;;;19.70;12.80;;;;;;;8.28;72.57;102798.31;5225251;28;20188;-78
2022/04/29 06:10:15;;;;;;;20.00;12.43;;;;;;;8.34;71.96;102795.56;5225706;28;20068;-77
2022/04/29 06:12:46;;;;;;;22.53;13.30;;;;;;;8.19;72.98;102799.34;5225887;28;20151;-76
2022/04/29 06:15:18;;;;;;;21.53;11.83;;;;;;;8.29;73.81;102797.41;5225940;28;20037;-77
2022/04/29 06:17:49;;;;;;;20.23;13.00;;;;;;;8.34;73.06;102802.56;5225670;28;20759;-76
2022/04/29 06:20:20;;;;;;;21.80;13.43;;;;;;;8.45;72.11;102800.59;5224706;28;20396;-77
2022/04/29 06:22:51;;;;;;;23.50;13.40;;;;;;;8.42;72.31;102805.00;5224687;28;20103;-77
2022/04/29 06:25:24;;;;;;;18.70;11.97;;;;;;;8.46;72.47;102806.69;5224563;28;20503;-78
2022/04/29 06:27:55;;;;;;;23.03;12.90;;;;;;;8.56;72.15;102808.25;5225824;28;20900;-78
2022/04/29 06:30:27;;;;;;;20.77;13.60;;;;;;;8.54;72.14;102803.91;5224640;28;20120;-78
2022/04/29 06:32:58;;;;;;;22.27;13.47;;;;;;;8.51;72.04;102807.47;5224465;28;20038;-77
2022/04/29 06:35:29;;;;;;;19.33;13.27;;;;;;;8.59;72.14;102813.41;5222862;28;20031;-78
2022/04/29 06:38:01;;;;;;;19.20;13.70;;;;;;;8.62;71.98;102820.34;5226057;28;20061;-76
2022/04/29 06:40:32;;;;;;;19.60;12.83;;;;;;;8.67;71.59;102825.47;5227650;28;20032;-77
2022/04/29 06:43:03;;;;;;;19.63;12.83;;;;;;;8.76;71.02;102821.81;5227876;28;20056;-77
2022/04/29 06:45:34;;;;;;;17.33;12.83;;;;;;;8.75;71.58;102810.50;5227947;28;20029;-77
2022/04/29 06:48:06;;;;;;;20.10;13.43;;;;;;;8.85;70.81;102808.53;5227373;28;20163;-78
2022/04/29 06:50:37;;;;;;;20.70;13.97;;;;;;;8.85;70.68;102813.78;5228596;28;20029;-78
2022/04/29 06:53:08;;;;;;;17.70;13.40;;;;;;;9.01;70.68;102808.22;5229068;28;20025;-76
2022/04/29 06:55:40;;;;;;;17.93;12.20;;;;;;;8.94;69.96;102810.09;5229949;28;20563;-77
2022/04/29 06:58:11;;;;;;;21.40;13.27;;;;;;;9.10;69.67;102817.63;5229107;28;20486;-78
2022/04/29 07:00:43;;;;;;;21.53;12.87;;;;;;;9.10;69.58;102815.88;5227698;28;20507;-78
2022/04/29 07:03:14;;;;;;;20.40;12.43;;;;;;;9.12;69.67;102821.94;5228845;28;20025;-78
2022/04/29 07:05:45;;;;;;;18.37;14.00;;;;;;;9.26;68.77;102821.63;5228000;28;20428;-75
2022/04/29 07:08:17;;;;;;;22.93;12.27;;;;;;;9.39;68.48;102814.34;5228382;28;20408;-77
2022/04/29 07:10:48;;;;;;;21.33;12.97;;;;;;;9.52;68.88;102819.31;5229246;28;20037;-77
2022/04/29 07:13:20;;;;;;;19.97;13.07;;;;;;;9.61;68.00;102811.25;5228803;28;20049;-78
2022/04/29 07:15:51;;;;;;;24.03;12.73;;;;;;;9.75;67.26;102812.66;5228496;28;20187;-79
2022/04/29 07:18:22;;;;;;;26.40;13.23;;;;;;;9.65;67.23;102814.66;5227492;28;20033;-78
2022/04/29 07:20:53;;;;;;;24.40;12.87;;;;;;;9.85;67.36;102819.38;5226734;28;20021;-78
2022/04/29 07:23:25;;;;;;;19.73;13.27;;;;;;;10.02;66.53;102812.84;5228702;28;20079;-76
2022/04/29 07:25:58;;;;;;;17.57;12.90;;;;;;;10.07;66.30;102820.59;5228290;28;20053;-77
2022/04/29 07:28:29;;;;;;;25.27;14.93;;;;;;;10.21;66.16;102812.38;5228010;28;20156;-77
2022/04/29 07:31:01;;;;;;;28.93;14.67;;;;;;;10.40;65.31;102802.28;5228243;28;20100;-77
2022/04/29 07:33:32;;;;;;;23.53;14.40;;;;;;;10.70;64.66;102815.41;5227027;28;20052;-77
2022/04/29 07:41:57;;;;;;;19.20;12.53;;;;;;;11.09;62.46;102809.06;5228712;28;20455;-78
2022/04/29 07:44:29;;;;;;;22.67;12.77;;;;;;;11.02;63.52;102789.16;5226688;28;20033;-78
2022/04/29 07:47:01;;;;;;;20.77;13.03;;;;;;;11.31;62.44;102808.38;5227939;28;20042;-79
2022/04/29 07:49:32;;;;;;;19.97;13.53;;;;;;;11.69;62.04;102810.69;5228205;28;20029;-77
2022/04/29 07:52:03;;;;;;;19.60;12.97;;;;;;;11.72;60.96;102805.34;5226453;28;20388;-77
2022/04/29 07:54:34;;;;;;;23.50;13.20;;;;;;;12.04;60.93;102810.41;5244158;28;20120;-77
2022/04/29 07:57:06;;;;;;;23.60;14.27;;;;;;;12.16;60.13;102816.19;5227798;28;20060;-77
2022/04/29 07:59:37;;;;;;;17.70;12.87;;;;;;;12.24;59.81;102816.75;5227895;28;20033;-77
2022/04/29 08:02:09;;;;;;;20.13;12.23;;;;;;;11.72;60.19;102814.97;5226572;28;20021;-78
2022/04/29 08:04:40;;;;;;;24.73;13.17;;;;;;;11.90;59.69;102823.16;5229646;28;20010;-78
2022/04/29 08:07:12;;;;;;;22.47;13.23;;;;;;;11.82;60.21;102821.63;5227489;28;20091;-78
2022/04/29 08:09:44;;;;;;;19.07;13.60;;;;;;;11.91;60.17;102825.72;5227217;28;20820;-78
2022/04/29 08:12:15;;;;;;;24.43;13.27;;;;;;;12.06;60.03;102826.97;5228465;28;20105;-78
2022/04/29 08:14:46;;;;;;;23.27;12.70;;;;;;;12.04;60.05;102818.31;5227218;28;20086;-78
2022/04/29 08:17:17;;;;;;;25.57;13.27;;;;;;;11.88;59.71;102819.72;5227730;28;20021;-78
2022/04/29 08:19:49;;;;;;;24.47;13.27;;;;;;;11.89;60.46;102821.41;5227199;28;20566;-77
2022/04/29 08:22:21;;;;;;;23.80;13.23;;;;;;;12.23;60.42;102820.31;5225822;28;20803;-78
2022/04/29 08:24:52;;;;;;;19.57;13.60;;;;;;;12.30;59.45;102827.06;5227991;28;20035;-78
2022/04/29 08:27:23;;;;;;;21.87;13.07;;;;;;;12.12;59.49;102823.31;5226406;28;20041;-77
2022/04/29 08:29:56;;;;;;;19.20;13.30;;;;;;;12.27;59.23;102827.16;5227540;28;20061;-77
2022/04/29 08:32:27;;;;;;;23.53;12.83;;;;;;;12.17;59.20;102820.50;5227095;28;20056;-77
2022/04/29 08:34:59;;;;;;;20.23;12.80;;;;;;;12.09;59.90;102829.53;5228230;28;20841;-77
2022/04/29 08:37:30;;;;;;;20.37;14.33;;;;;;;12.23;59.58;102836.06;5227884;28;20110;-78
2022/04/29 08:40:02;;;;;;;19.37;12.90;;;;;;;12.25;59.27;102833.38;5226807;28;20468;-78
2022/04/29 08:42:38;;;;;;;25.97;13.40;;;;;;;12.39;58.84;102833.75;5226536;28;20492;-79
2022/04/29 08:45:14;;;;;;;21.83;14.63;;;;;;;12.21;59.78;102822.13;5226776;28;20076;-78
2022/04/29 08:47:47;;;;;;;23.27;12.20;;;;;;;12.43;59.41;102823.97;5227050;28;20037;-78
2022/04/29 08:50:20;;;;;;;23.50;13.80;;;;;;;12.46;58.95;102826.53;5226491;28;20479;-78
2022/04/29 08:52:54;;;;;;;18.77;13.73;;;;;;;12.32;59.03;102830.47;5226871;28;20037;-78
2022/04/29 09:01:20;;;;;;;20.10;14.63;;;;;;;12.63;59.39;102804.00;5226912;28;20033;-78
2022/04/29 09:03:52;;;;;;;21.77;13.47;;;;;;;12.78;58.45;102795.53;5226408;28;20068;-78
2022/04/29 09:06:23;;;;;;;24.27;13.83;;;;;;;12.76;58.62;102792.09;5225487;28;20656;-73
2022/04/29 09:09:07;;;;;;;26.50;13.90;;;;;;;12.90;58.45;102796.84;5224924;28;20098;-79
2022/04/29 09:11:39;;;;;;;18.23;13.05;;;;;;;12.91;58.61;102821.38;5227075;28;20049;-78
2022/04/29 09:14:24;;;;;;;22.30;12.90;;;;;;;13.02;58.08;102818.34;5225773;28;20104;-78
2022/04/29 09:16:55;;;;;;;20.33;13.77;;;;;;;12.96;58.18;102822.06;5226023;28;20035;-77
2022/04/29 09:19:31;;;;;;;20.17;13.37;;;;;;;13.16;57.92;102817.81;5226562;28;20022;-77
2022/04/29 09:22:05;;;;;;;35.30;13.03;;;;;;;13.22;58.49;102817.53;5225620;28;20574;-77
2022/04/29 09:24:37;;;;;;;22.15;12.70;;;;;;;13.36;57.98;102818.75;5226142;28;20495;-77
2022/04/29 09:27:08;;;;;;;23.53;14.17;;;;;;;13.32;57.07;102820.66;5241137;28;20033;-77
2022/04/29 09:29:42;;;;;;;20.00;13.67;;;;;;;13.28;56.93;102825.19;5226491;28;20557;-78
2022/04/29 09:32:13;;;;;;;23.20;13.52;;;;;;;13.58;56.61;102828.47;5241322;28;20459;-77
2022/04/29 09:34:58;;;;;;;21.50;13.03;;;;;;;13.67;56.55;102825.44;5226703;28;20297;-77
2022/04/29 09:37:30;;;;;;;24.80;11.30;;;;;;;13.73;55.91;102830.47;5226347;28;20025;-77
2022/04/29 09:40:05;;;;;;;21.80;13.17;;;;;;;13.88;55.78;102828.09;5226027;28;20030;-78
2022/04/29 09:42:37;;;;;;;19.33;12.07;;;;;;;13.76;56.26;102822.44;5227260;28;20029;-76
2022/04/29 09:45:13;;;;;;;21.83;12.97;;;;;;;13.70;56.30;102824.47;5226302;28;20036;-77
2022/04/29 09:47:45;;;;;;;30.60;12.70;;;;;;;13.41;57.08;102825.56;5226017;28;20017;-77
2022/04/29 09:50:17;;;;;;;23.53;13.00;;;;;;;13.44;56.79;102824.56;5224275;28;20036;-78
2022/04/29 09:52:49;;;;;;;26.20;13.90;;;;;;;13.28;57.20;102819.91;5240936;28;20026;-77
2022/04/29 09:55:20;;;;;;;20.53;13.13;;;;;;;13.22;57.77;102814.91;5241817;28;20029;-77
2022/04/29 09:57:58;;;;;;;19.97;12.60;;;;;;;13.28;57.66;102813.81;5226137;28;20092;-76
2022/04/29 10:00:30;;;;;;;23.70;13.13;;;;;;;13.24;57.70;102817.47;5229553;28;20028;-78
2022/04/29 10:03:03;;;;;;;18.43;11.70;;;;;;;13.06;58.18;102809.38;5223955;28;20509;-77
2022/04/29 10:05:37;;;;;;;29.70;13.93;;;;;;;13.12;58.16;102808.31;5225506;28;20107;-76
2022/04/29 10:08:08;;;;;;;27.65;14.45;;;;;;;13.11;58.07;102811.88;5223874;28;20524;-77
2022/04/29 10:10:40;;;;;;;23.33;12.63;;;;;;;13.03;57.86;102805.13;5226427;28;20064;-76
2022/04/29 10:13:13;;;;;;;21.93;12.30;;;;;;;13.05;58.56;102812.94;5224486;28;20121;-77
2022/04/29 10:15:46;;;;;;;19.30;12.87;;;;;;;13.10;58.11;102804.88;5228344;28;20025;-77
2022/04/29 10:21:16;;;;;;;24.83;13.33;;;;;;;13.05;58.28;102798.03;5217143;28;20029;-78
2022/04/29 10:23:51;;;;;;;24.83;13.00;;;;;;;13.10;58.61;102799.63;5228955;28;20049;-76
2022/04/29 10:26:25;;;;;;;18.63;13.00;;;;;;;13.18;58.49;102789.63;5230082;28;20017;-78
2022/04/29 10:28:56;;;;;;;18.08;11.93;;;;;;;13.17;58.53;102787.94;5229098;28;20536;-77
2022/04/29 10:31:31;;;;;;;17.87;11.47;;;;;;;13.01;58.71;102792.94;5230098;28;20120;-77
2022/04/29 10:34:31;;;;;;;18.13;12.30;;;;;;;13.34;58.23;102791.66;5229299;28;20033;-79
2022/04/29 10:37:10;;;;;;;23.53;13.17;;;;;;;13.36;58.23;102795.09;5227249;28;20112;-77
2022/04/29 10:40:11;;;;;;;23.77;12.23;;;;;;;13.37;57.93;102786.28;5227403;28;20033;-77
2022/04/29 10:43:18;;;;;;;25.20;12.33;;;;;;;13.44;57.95;102790.34;5227780;28;20485;-78
2022/04/29 10:46:04;;;;;;;20.47;10.90;;;;;;;13.33;57.67;102789.94;5224725;28;20080;-78
2022/04/29 10:48:38;;;;;;;18.90;12.50;;;;;;;13.25;57.81;102799.00;5229708;28;20028;-78
2022/04/29 10:51:47;;;;;;;23.67;12.10;;;;;;;13.40;57.69;102794.06;5228213;28;20025;-79
2022/04/29 10:54:40;;;;;;;20.47;11.73;;;;;;;13.30;57.91;102798.81;5228044;28;20507;-78
2022/04/29 10:57:14;;;;;;;20.07;11.80;;;;;;;13.20;57.71;102777.28;5228492;28;20040;-79
2022/04/29 10:59:58;;;;;;;20.30;12.07;;;;;;;13.37;57.99;102781.03;5229343;28;20598;-75
2022/04/29 11:02:31;;;;;;;17.73;11.98;;;;;;;13.28;58.16;102777.81;5228981;28;20075;-78
2022/04/29 11:05:03;;;;;;;19.43;11.17;;;;;;;13.25;57.68;102777.09;5228391;28;20365;-79
2022/04/29 11:07:39;;;;;;;19.83;11.77;;;;;;;13.43;57.89;102770.22;5226860;28;20057;-77
2022/04/29 11:10:19;;;;;;;19.70;10.97;;;;;;;13.36;57.80;102774.03;5228720;28;20086;-78
2022/04/29 11:12:58;;;;;;;17.80;11.23;;;;;;;13.34;57.95;102782.00;5228384;28;20136;-78
2022/04/29 11:15:43;;;;;;;21.50;11.17;;;;;;;13.50;57.98;102769.06;5229110;28;20026;-78
2022/04/29 11:18:26;;;;;;;20.57;10.93;;;;;;;13.52;57.74;102769.03;5229121;28;20029;-78
2022/04/29 11:24:40;;;;;;;19.37;10.63;;;;;;;13.48;57.90;102772.66;5225736;28;20503;-78
2022/04/29 11:26:50;;;;;;;17.30;11.53;;;;;;;13.48;57.80;102768.25;5228467;28;20037;-78
2022/04/29 11:29:22;;;;;;;18.73;10.87;;;;;;;13.60;57.77;102768.69;5228129;28;20026;-76
2022/04/29 11:31:54;;;;;;;20.60;10.73;;;;;;;13.64;57.00;102760.63;5227682;28;20091;-75
2022/04/29 11:34:25;;;;;;;15.53;10.40;;;;;;;13.73;57.22;102762.00;5228331;28;20120;-78
2022/04/29 11:36:57;;;;;;;18.53;9.93;;;;;;;13.78;57.56;102762.66;5225820;28;20126;-75
2022/04/29 11:39:34;;;;;;;19.30;10.20;;;;;;;13.91;56.91;102765.63;5243654;28;20069;-77
2022/04/29 11:42:08;;;;;;;21.33;9.63;;;;;;;13.97;57.02;102758.38;5228125;28;20029;-78
2022/04/29 11:44:42;;;;;;;17.88;10.50;;;;;;;14.05;56.32;102760.69;5228345;28;20064;-75
2022/04/29 11:47:13;;;;;;;20.85;9.85;;;;;;;14.27;56.33;102757.94;5227855;28;20351;-77
2022/04/29 11:49:44;;;;;;;16.23;8.97;;;;;;;14.37;56.06;102758.38;5227840;28;20091;-77
2022/04/29 11:52:26;;;;;;;22.77;10.10;;;;;;;14.35;54.67;102765.47;5227630;28;20065;-77
2022/04/29 11:54:59;;;;;;;14.07;9.50;;;;;;;14.64;55.02;102758.88;5227115;28;20701;-76
2022/04/29 11:57:33;;;;;;;22.97;11.70;;;;;;;14.67;54.74;102757.88;5228117;28;20112;-77
2022/04/29 12:00:06;;;;;;;16.63;8.88;;;;;;;14.92;53.56;102756.78;5228088;28;20053;-77
2022/04/29 12:02:45;;;;;;;17.33;9.23;;;;;;;15.00;53.25;102762.53;5228063;28;20025;-77
2022/04/29 12:05:20;;;;;;;20.97;9.07;;;;;;;15.09;53.28;102760.38;5227557;28;20431;-77
2022/04/29 12:07:52;;;;;;;14.73;8.93;;;;;;;15.16;52.72;102768.84;5225096;28;20103;-78